Pennridge Airport


Codes: KCKZ/
Name: Pennridge Airport
City: Perkasie
Country: United States
Elevation: 568 ft.
Wikipedia:

Photos at Pennridge Airport


   Photos courtesy of SpottingLog. You can add your own sightings and photos by signing up for a free trial today.



No photos found.

Weather at Pennridge Airport


Time (UTC)DescriptionTempratureWindCloud coverageVisibilityPressureHumidity
21-Feb-2024 03:00Clear Sky-3°C4 mph, SE0%10000m1031hPa68%
21-Feb-2024 06:00Clear Sky-3°C2 mph, E9%10000m1032hPa69%
21-Feb-2024 09:00Scattered Clouds-4°C2 mph, NE45%10000m1032hPa73%
21-Feb-2024 12:00Scattered Clouds-5°C2 mph, NE43%10000m1032hPa79%
21-Feb-2024 15:00Scattered Clouds1°C4 mph, NE40%10000m1032hPa59%
21-Feb-2024 18:00Scattered Clouds4°C4 mph, SE30%10000m1029hPa52%
21-Feb-2024 21:00Clear Sky6°C2 mph, SE6%10000m1027hPa53%
22-Feb-2024 00:00Clear Sky-0°C7 mph, SE6%10000m1027hPa79%
22-Feb-2024 03:00Broken Clouds-1°C7 mph, SE66%10000m1025hPa85%
22-Feb-2024 06:00Scattered Clouds-3°C2 mph, SE38%10000m1024hPa89%
22-Feb-2024 09:00Few Clouds-3°C0 mph, SE18%10000m1022hPa90%
22-Feb-2024 12:00Scattered Clouds-3°C2 mph, SE42%10000m1021hPa90%
22-Feb-2024 15:00Broken Clouds3°C7 mph, S53%10000m1018hPa69%
22-Feb-2024 18:00Scattered Clouds7°C7 mph, S49%10000m1014hPa58%
22-Feb-2024 21:00Overcast Clouds5°C7 mph, S99%10000m1010hPa75%
23-Feb-2024 00:00Light Rain4°C7 mph, S100%10000m1008hPa79%
23-Feb-2024 03:00Light Rain3°C9 mph, SE100%10000m1005hPa87%
23-Feb-2024 06:00Light Rain4°C7 mph, SE100%10000m1001hPa90%
23-Feb-2024 09:00Light Rain4°C4 mph, S100%8764m997hPa98%
23-Feb-2024 12:00Light Rain5°C4 mph, S100%2534m996hPa99%
23-Feb-2024 15:00Light Rain5°C4 mph, NW100%5537m997hPa99%
23-Feb-2024 18:00Overcast Clouds5°C9 mph, NW100%10000m998hPa89%
23-Feb-2024 21:00Overcast Clouds6°C9 mph, NW100%10000m998hPa83%
24-Feb-2024 00:00Overcast Clouds5°C9 mph, NW97%10000m1001hPa76%
24-Feb-2024 03:00Overcast Clouds4°C9 mph, NW100%10000m1003hPa72%
24-Feb-2024 06:00Overcast Clouds1°C7 mph, NW87%10000m1004hPa80%
24-Feb-2024 09:00Few Clouds-1°C11 mph, NW23%10000m1005hPa76%
24-Feb-2024 12:00Scattered Clouds-3°C9 mph, NW28%10000m1009hPa70%
24-Feb-2024 15:00Overcast Clouds-2°C13 mph, NW100%10000m1012hPa53%
24-Feb-2024 18:00Overcast Clouds1°C11 mph, NW98%10000m1012hPa42%
24-Feb-2024 21:00Scattered Clouds1°C11 mph, NW40%10000m1013hPa41%
25-Feb-2024 00:00Few Clouds-2°C7 mph, N21%10000m1018hPa56%
25-Feb-2024 03:00Clear Sky-4°C4 mph, N0%10000m1020hPa59%
25-Feb-2024 06:00Clear Sky-4°C2 mph, NE1%10000m1021hPa58%
25-Feb-2024 09:00Clear Sky-4°C2 mph, SW0%10000m1022hPa56%
25-Feb-2024 12:00Clear Sky-4°C4 mph, S0%10000m1023hPa55%
25-Feb-2024 15:00Scattered Clouds2°C9 mph, SW28%10000m1023hPa41%
25-Feb-2024 18:00Broken Clouds5°C11 mph, SW64%10000m1020hPa39%
25-Feb-2024 21:00Few Clouds6°C11 mph, SW12%10000m1018hPa41%
26-Feb-2024 00:00Broken Clouds3°C11 mph, S51%10000m1018hPa55%